sensor_id;sensor_type;location;lat;lon;timestamp;temperature;humidity
21033;DHT22;10675;47.976;7.824;2022-12-07T00:01:20;4.30;99.90
21033;DHT22;10675;47.976;7.824;2022-12-07T00:03:47;4.30;99.90
21033;DHT22;10675;47.976;7.824;2022-12-07T00:06:15;4.30;99.90
21033;DHT22;10675;47.976;7.824;2022-12-07T00:08:41;4.40;99.90
21033;DHT22;10675;47.976;7.824;2022-12-07T00:11:13;4.50;99.90
21033;DHT22;10675;47.976;7.824;2022-12-07T00:13:39;4.50;99.90
21033;DHT22;10675;47.976;7.824;2022-12-07T00:16:08;4.50;99.90
21033;DHT22;10675;47.976;7.824;2022-12-07T00:18:35;4.50;99.90
21033;DHT22;10675;47.976;7.824;2022-12-07T00:23:26;4.50;99.90
21033;DHT22;10675;47.976;7.824;2022-12-07T00:25:52;4.50;99.90
21033;DHT22;10675;47.976;7.824;2022-12-07T00:28:18;4.60;99.90
21033;DHT22;10675;47.976;7.824;2022-12-07T00:30:43;4.50;99.90
21033;DHT22;10675;47.976;7.824;2022-12-07T00:33:09;4.50;99.90
21033;DHT22;10675;47.976;7.824;2022-12-07T00:35:34;4.50;99.90
21033;DHT22;10675;47.976;7.824;2022-12-07T00:38:00;4.40;99.90
21033;DHT22;10675;47.976;7.824;2022-12-07T00:40:25;4.40;99.90
21033;DHT22;10675;47.976;7.824;2022-12-07T00:42:51;4.40;99.90
21033;DHT22;10675;47.976;7.824;2022-12-07T00:45:16;4.40;99.90
21033;DHT22;10675;47.976;7.824;2022-12-07T00:47:42;4.40;99.90
21033;DHT22;10675;47.976;7.824;2022-12-07T00:50:08;4.40;99.90
21033;DHT22;10675;47.976;7.824;2022-12-07T00:52:34;4.40;99.90
21033;DHT22;10675;47.976;7.824;2022-12-07T00:54:59;4.40;99.90
21033;DHT22;10675;47.976;7.824;2022-12-07T00:57:25;4.10;99.90
21033;DHT22;10675;47.976;7.824;2022-12-07T00:59:50;4.40;99.90
21033;DHT22;10675;47.976;7.824;2022-12-07T01:02:21;4.40;99.90
21033;DHT22;10675;47.976;7.824;2022-12-07T01:04:46;4.40;99.90
21033;DHT22;10675;47.976;7.824;2022-12-07T01:07:12;4.40;99.90
21033;DHT22;10675;47.976;7.824;2022-12-07T01:09:37;4.50;99.90
21033;DHT22;10675;47.976;7.824;2022-12-07T01:12:03;4.50;99.90
21033;DHT22;10675;47.976;7.824;2022-12-07T01:14:29;4.50;99.90
21033;DHT22;10675;47.976;7.824;2022-12-07T01:16:54;4.60;99.90
21033;DHT22;10675;47.976;7.824;2022-12-07T01:19:20;4.70;99.90
21033;DHT22;10675;47.976;7.824;2022-12-07T01:21:46;4.70;99.90
21033;DHT22;10675;47.976;7.824;2022-12-07T01:24:11;4.70;99.90
21033;DHT22;10675;47.976;7.824;2022-12-07T01:26:37;4.70;99.90
21033;DHT22;10675;47.976;7.824;2022-12-07T01:29:03;4.70;99.90
21033;DHT22;10675;47.976;7.824;2022-12-07T01:31:29;4.80;99.90
21033;DHT22;10675;47.976;7.824;2022-12-07T01:33:56;4.80;99.90
21033;DHT22;10675;47.976;7.824;2022-12-07T01:36:30;4.70;99.90
21033;DHT22;10675;47.976;7.824;2022-12-07T01:39:02;4.60;99.90
21033;DHT22;10675;47.976;7.824;2022-12-07T01:41:31;4.70;99.90
21033;DHT22;10675;47.976;7.824;2022-12-07T01:44:21;4.70;99.90
21033;DHT22;10675;47.976;7.824;2022-12-07T01:46:55;4.70;99.90
21033;DHT22;10675;47.976;7.824;2022-12-07T01:52:19;4.60;99.90
21033;DHT22;10675;47.976;7.824;2022-12-07T01:54:49;4.50;99.90
21033;DHT22;10675;47.976;7.824;2022-12-07T01:57:17;4.40;99.90
21033;DHT22;10675;47.976;7.824;2022-12-07T01:59:47;4.40;99.90
21033;DHT22;10675;47.976;7.824;2022-12-07T02:02:20;4.40;99.90
21033;DHT22;10675;47.976;7.824;2022-12-07T02:04:46;4.30;99.90
21033;DHT22;10675;47.976;7.824;2022-12-07T02:07:12;4.30;99.90
21033;DHT22;10675;47.976;7.824;2022-12-07T02:09:38;4.40;99.90
21033;DHT22;10675;47.976;7.824;2022-12-07T02:12:04;4.40;99.90
21033;DHT22;10675;47.976;7.824;2022-12-07T02:14:30;4.30;99.90
21033;DHT22;10675;47.976;7.824;2022-12-07T02:17:10;4.20;99.90
21033;DHT22;10675;47.976;7.824;2022-12-07T02:28:14;4.20;99.90
21033;DHT22;10675;47.976;7.824;2022-12-07T02:30:47;4.30;99.90
21033;DHT22;10675;47.976;7.824;2022-12-07T02:33:17;4.20;99.90
21033;DHT22;10675;47.976;7.824;2022-12-07T02:36:04;4.20;99.90
21033;DHT22;10675;47.976;7.824;2022-12-07T02:39:00;4.20;99.90
21033;DHT22;10675;47.976;7.824;2022-12-07T02:41:33;4.10;99.90
21033;DHT22;10675;47.976;7.824;2022-12-07T02:44:04;4.10;99.90
21033;DHT22;10675;47.976;7.824;2022-12-07T02:46:41;4.00;99.90
21033;DHT22;10675;47.976;7.824;2022-12-07T02:49:08;4.00;99.90
21033;DHT22;10675;47.976;7.824;2022-12-07T02:51:39;4.10;99.90
21033;DHT22;10675;47.976;7.824;2022-12-07T02:54:12;4.10;99.90
21033;DHT22;10675;47.976;7.824;2022-12-07T03:10:08;4.00;99.90
21033;DHT22;10675;47.976;7.824;2022-12-07T03:13:05;4.10;99.90
21033;DHT22;10675;47.976;7.824;2022-12-07T03:15:39;4.00;99.90
21033;DHT22;10675;47.976;7.824;2022-12-07T03:18:08;4.10;99.90
21033;DHT22;10675;47.976;7.824;2022-12-07T03:20:35;4.20;99.90
21033;DHT22;10675;47.976;7.824;2022-12-07T03:23:04;4.20;99.90
21033;DHT22;10675;47.976;7.824;2022-12-07T03:25:33;4.20;99.90
21033;DHT22;10675;47.976;7.824;2022-12-07T03:28:03;4.20;99.90
21033;DHT22;10675;47.976;7.824;2022-12-07T03:30:58;4.20;99.90
21033;DHT22;10675;47.976;7.824;2022-12-07T03:33:30;4.30;99.90
21033;DHT22;10675;47.976;7.824;2022-12-07T03:36:06;4.30;99.90
21033;DHT22;10675;47.976;7.824;2022-12-07T03:41:31;4.30;99.90
21033;DHT22;10675;47.976;7.824;2022-12-07T03:43:58;4.20;99.90
21033;DHT22;10675;47.976;7.824;2022-12-07T03:46:52;4.20;99.90
21033;DHT22;10675;47.976;7.824;2022-12-07T03:49:26;4.30;99.90
21033;DHT22;10675;47.976;7.824;2022-12-07T03:55:27;4.40;99.90
21033;DHT22;10675;47.976;7.824;2022-12-07T03:58:00;4.40;99.90
21033;DHT22;10675;47.976;7.824;2022-12-07T04:00:27;4.40;99.90
21033;DHT22;10675;47.976;7.824;2022-12-07T04:02:53;4.40;99.90
21033;DHT22;10675;47.976;7.824;2022-12-07T04:05:18;4.40;99.90
21033;DHT22;10675;47.976;7.824;2022-12-07T04:07:44;4.30;99.90
21033;DHT22;10675;47.976;7.824;2022-12-07T04:10:11;4.30;99.90
21033;DHT22;10675;47.976;7.824;2022-12-07T04:12:36;4.20;99.90
21033;DHT22;10675;47.976;7.824;2022-12-07T04:15:03;4.20;99.90
21033;DHT22;10675;47.976;7.824;2022-12-07T04:17:29;4.10;99.90
21033;DHT22;10675;47.976;7.824;2022-12-07T04:22:22;4.20;99.90
21033;DHT22;10675;47.976;7.824;2022-12-07T04:24:48;4.20;99.90
21033;DHT22;10675;47.976;7.824;2022-12-07T04:27:14;4.30;99.90
21033;DHT22;10675;47.976;7.824;2022-12-07T04:29:40;4.30;99.90
21033;DHT22;10675;47.976;7.824;2022-12-07T04:32:05;4.20;99.90
21033;DHT22;10675;47.976;7.824;2022-12-07T04:34:31;4.20;99.90
21033;DHT22;10675;47.976;7.824;2022-12-07T04:36:57;4.20;99.90
21033;DHT22;10675;47.976;7.824;2022-12-07T04:39:30;4.20;99.90
21033;DHT22;10675;47.976;7.824;2022-12-07T04:41:57;4.30;99.90
21033;DHT22;10675;47.976;7.824;2022-12-07T04:44:24;4.30;99.90
21033;DHT22;10675;47.976;7.824;2022-12-07T04:46:51;4.40;99.90
21033;DHT22;10675;47.976;7.824;2022-12-07T04:49:17;4.40;99.90
21033;DHT22;10675;47.976;7.824;2022-12-07T04:51:44;4.40;99.90
21033;DHT22;10675;47.976;7.824;2022-12-07T04:54:10;4.20;99.90
21033;DHT22;10675;47.976;7.824;2022-12-07T04:56:37;4.20;99.90
21033;DHT22;10675;47.976;7.824;2022-12-07T04:59:03;4.20;99.90
21033;DHT22;10675;47.976;7.824;2022-12-07T05:01:29;4.20;99.90
21033;DHT22;10675;47.976;7.824;2022-12-07T05:03:55;4.20;99.90
21033;DHT22;10675;47.976;7.824;2022-12-07T05:06:21;4.20;99.90
21033;DHT22;10675;47.976;7.824;2022-12-07T05:08:46;4.10;99.90
21033;DHT22;10675;47.976;7.824;2022-12-07T05:11:12;4.10;99.90
21033;DHT22;10675;47.976;7.824;2022-12-07T05:13:58;4.10;99.90
21033;DHT22;10675;47.976;7.824;2022-12-07T05:16:24;4.00;99.90
21033;DHT22;10675;47.976;7.824;2022-12-07T05:18:49;4.10;99.90
21033;DHT22;10675;47.976;7.824;2022-12-07T05:21:15;4.10;99.90
21033;DHT22;10675;47.976;7.824;2022-12-07T05:23:40;4.00;99.90
21033;DHT22;10675;47.976;7.824;2022-12-07T05:26:06;4.00;99.90
21033;DHT22;10675;47.976;7.824;2022-12-07T05:28:31;4.00;99.90
21033;DHT22;10675;47.976;7.824;2022-12-07T05:30:57;4.10;99.90
21033;DHT22;10675;47.976;7.824;2022-12-07T05:33:22;4.00;99.90
21033;DHT22;10675;47.976;7.824;2022-12-07T05:35:48;4.00;99.90
21033;DHT22;10675;47.976;7.824;2022-12-07T05:38:14;4.00;99.90
21033;DHT22;10675;47.976;7.824;2022-12-07T05:40:39;4.00;99.90
21033;DHT22;10675;47.976;7.824;2022-12-07T05:43:05;3.90;99.90
21033;DHT22;10675;47.976;7.824;2022-12-07T05:45:30;3.80;99.90
21033;DHT22;10675;47.976;7.824;2022-12-07T05:47:56;3.70;99.90
21033;DHT22;10675;47.976;7.824;2022-12-07T05:50:21;3.60;99.90
21033;DHT22;10675;47.976;7.824;2022-12-07T05:52:47;3.70;99.90
21033;DHT22;10675;47.976;7.824;2022-12-07T05:55:12;3.60;99.90
21033;DHT22;10675;47.976;7.824;2022-12-07T05:57:38;3.60;99.90
21033;DHT22;10675;47.976;7.824;2022-12-07T06:00:04;3.70;99.90
21033;DHT22;10675;47.976;7.824;2022-12-07T06:02:30;3.70;99.90
21033;DHT22;10675;47.976;7.824;2022-12-07T06:04:55;3.50;99.90
21033;DHT22;10675;47.976;7.824;2022-12-07T06:07:21;3.60;99.90
21033;DHT22;10675;47.976;7.824;2022-12-07T06:09:47;3.70;99.90
21033;DHT22;10675;47.976;7.824;2022-12-07T06:12:13;3.50;99.90
21033;DHT22;10675;47.976;7.824;2022-12-07T06:14:58;3.40;99.90
21033;DHT22;10675;47.976;7.824;2022-12-07T06:17:24;3.40;99.90
21033;DHT22;10675;47.976;7.824;2022-12-07T06:19:49;3.40;99.90
21033;DHT22;10675;47.976;7.824;2022-12-07T06:22:15;3.30;99.90
21033;DHT22;10675;47.976;7.824;2022-12-07T06:24:41;3.30;99.90
21033;DHT22;10675;47.976;7.824;2022-12-07T06:27:08;3.40;99.90
21033;DHT22;10675;47.976;7.824;2022-12-07T06:29:34;3.30;99.90
21033;DHT22;10675;47.976;7.824;2022-12-07T06:31:59;3.30;99.90
21033;DHT22;10675;47.976;7.824;2022-12-07T06:34:26;3.30;99.90
21033;DHT22;10675;47.976;7.824;2022-12-07T06:36:52;3.50;99.90
21033;DHT22;10675;47.976;7.824;2022-12-07T06:39:20;3.50;99.90
21033;DHT22;10675;47.976;7.824;2022-12-07T06:41:46;3.40;99.90
21033;DHT22;10675;47.976;7.824;2022-12-07T06:44:12;3.30;99.90
21033;DHT22;10675;47.976;7.824;2022-12-07T06:46:38;3.30;99.90
21033;DHT22;10675;47.976;7.824;2022-12-07T06:49:05;3.20;99.90
21033;DHT22;10675;47.976;7.824;2022-12-07T06:51:31;3.10;99.90
21033;DHT22;10675;47.976;7.824;2022-12-07T06:53:57;3.10;99.90
21033;DHT22;10675;47.976;7.824;2022-12-07T06:56:22;2.90;99.90
21033;DHT22;10675;47.976;7.824;2022-12-07T06:58:48;3.10;99.90
21033;DHT22;10675;47.976;7.824;2022-12-07T07:01:17;3.10;99.90
21033;DHT22;10675;47.976;7.824;2022-12-07T07:03:44;3.10;99.90
21033;DHT22;10675;47.976;7.824;2022-12-07T07:06:11;3.10;99.90
21033;DHT22;10675;47.976;7.824;2022-12-07T07:08:37;3.00;99.90
21033;DHT22;10675;47.976;7.824;2022-12-07T07:11:04;2.90;99.90
21033;DHT22;10675;47.976;7.824;2022-12-07T07:13:29;2.70;99.90
21033;DHT22;10675;47.976;7.824;2022-12-07T07:15:55;2.80;99.90
21033;DHT22;10675;47.976;7.824;2022-12-07T07:18:21;2.70;99.90
21033;DHT22;10675;47.976;7.824;2022-12-07T07:20:47;2.60;99.90
21033;DHT22;10675;47.976;7.824;2022-12-07T07:23:12;2.50;99.90
21033;DHT22;10675;47.976;7.824;2022-12-07T07:25:38;2.50;99.90
21033;DHT22;10675;47.976;7.824;2022-12-07T07:28:04;2.50;99.90
21033;DHT22;10675;47.976;7.824;2022-12-07T07:30:30;2.60;99.90
21033;DHT22;10675;47.976;7.824;2022-12-07T07:32:57;2.60;99.90
21033;DHT22;10675;47.976;7.824;2022-12-07T07:35:24;2.70;99.90
21033;DHT22;10675;47.976;7.824;2022-12-07T07:37:50;2.60;99.90
21033;DHT22;10675;47.976;7.824;2022-12-07T07:40:15;2.50;99.90
21033;DHT22;10675;47.976;7.824;2022-12-07T07:42:41;2.50;99.90
21033;DHT22;10675;47.976;7.824;2022-12-07T07:45:07;2.50;99.90
21033;DHT22;10675;47.976;7.824;2022-12-07T07:47:32;2.50;99.90
21033;DHT22;10675;47.976;7.824;2022-12-07T07:49:58;2.50;99.90
21033;DHT22;10675;47.976;7.824;2022-12-07T07:52:23;2.40;99.90
21033;DHT22;10675;47.976;7.824;2022-12-07T07:54:49;2.40;99.90
21033;DHT22;10675;47.976;7.824;2022-12-07T07:57:16;2.30;99.90
21033;DHT22;10675;47.976;7.824;2022-12-07T07:59:42;2.40;99.90
21033;DHT22;10675;47.976;7.824;2022-12-07T08:02:14;2.40;99.90
21033;DHT22;10675;47.976;7.824;2022-12-07T08:04:39;2.40;99.90
21033;DHT22;10675;47.976;7.824;2022-12-07T08:07:05;2.30;99.90
21033;DHT22;10675;47.976;7.824;2022-12-07T08:09:30;2.50;99.90
21033;DHT22;10675;47.976;7.824;2022-12-07T08:11:57;2.50;99.90
21033;DHT22;10675;47.976;7.824;2022-12-07T08:14:22;2.60;99.90
21033;DHT22;10675;47.976;7.824;2022-12-07T08:16:48;2.60;99.90
21033;DHT22;10675;47.976;7.824;2022-12-07T08:19:13;2.60;99.90
21033;DHT22;10675;47.976;7.824;2022-12-07T08:21:39;2.70;99.90
21033;DHT22;10675;47.976;7.824;2022-12-07T08:24:04;2.70;99.90
21033;DHT22;10675;47.976;7.824;2022-12-07T08:26:30;2.70;99.90
21033;DHT22;10675;47.976;7.824;2022-12-07T08:28:56;2.90;99.90
21033;DHT22;10675;47.976;7.824;2022-12-07T08:31:21;2.90;99.90
21033;DHT22;10675;47.976;7.824;2022-12-07T08:33:47;3.00;99.90
21033;DHT22;10675;47.976;7.824;2022-12-07T08:36:14;3.20;99.90
21033;DHT22;10675;47.976;7.824;2022-12-07T08:38:40;3.30;99.90
21033;DHT22;10675;47.976;7.824;2022-12-07T08:41:07;3.40;99.90
21033;DHT22;10675;47.976;7.824;2022-12-07T08:43:33;3.60;99.90
21033;DHT22;10675;47.976;7.824;2022-12-07T08:48:37;3.90;99.90
21033;DHT22;10675;47.976;7.824;2022-12-07T08:51:04;4.10;99.90
21033;DHT22;10675;47.976;7.824;2022-12-07T08:53:30;4.30;99.90
21033;DHT22;10675;47.976;7.824;2022-12-07T08:55:56;4.30;99.90
21033;DHT22;10675;47.976;7.824;2022-12-07T08:58:22;4.40;99.90
21033;DHT22;10675;47.976;7.824;2022-12-07T09:00:48;4.40;99.90
21033;DHT22;10675;47.976;7.824;2022-12-07T09:03:13;4.50;99.90
21033;DHT22;10675;47.976;7.824;2022-12-07T09:05:39;4.50;99.90
21033;DHT22;10675;47.976;7.824;2022-12-07T09:08:05;4.70;99.90
21033;DHT22;10675;47.976;7.824;2022-12-07T09:10:31;4.80;99.90
21033;DHT22;10675;47.976;7.824;2022-12-07T09:12:57;4.90;99.90
21033;DHT22;10675;47.976;7.824;2022-12-07T09:15:27;4.90;99.90
21033;DHT22;10675;47.976;7.824;2022-12-07T09:17:53;4.90;99.90
21033;DHT22;10675;47.976;7.824;2022-12-07T09:20:18;5.00;99.90
21033;DHT22;10675;47.976;7.824;2022-12-07T09:22:44;5.00;99.90
21033;DHT22;10675;47.976;7.824;2022-12-07T09:25:09;5.20;99.90
21033;DHT22;10675;47.976;7.824;2022-12-07T09:27:35;5.20;99.90
21033;DHT22;10675;47.976;7.824;2022-12-07T09:30:00;5.30;99.90
21033;DHT22;10675;47.976;7.824;2022-12-07T09:32:26;5.40;99.90
21033;DHT22;10675;47.976;7.824;2022-12-07T09:34:52;5.50;99.90
21033;DHT22;10675;47.976;7.824;2022-12-07T09:37:17;5.50;99.90
21033;DHT22;10675;47.976;7.824;2022-12-07T09:39:43;5.50;99.90
21033;DHT22;10675;47.976;7.824;2022-12-07T09:42:11;5.60;99.90
21033;DHT22;10675;47.976;7.824;2022-12-07T09:44:44;5.70;99.90
21033;DHT22;10675;47.976;7.824;2022-12-07T09:47:10;5.70;99.90
21033;DHT22;10675;47.976;7.824;2022-12-07T09:49:35;5.80;99.90
21033;DHT22;10675;47.976;7.824;2022-12-07T09:54:41;5.90;99.90
21033;DHT22;10675;47.976;7.824;2022-12-07T09:57:10;6.00;99.90
21033;DHT22;10675;47.976;7.824;2022-12-07T09:59:36;6.00;99.90
21033;DHT22;10675;47.976;7.824;2022-12-07T10:02:23;6.20;99.90
21033;DHT22;10675;47.976;7.824;2022-12-07T10:04:49;6.30;99.90
21033;DHT22;10675;47.976;7.824;2022-12-07T10:07:14;6.40;99.90
21033;DHT22;10675;47.976;7.824;2022-12-07T10:09:40;6.40;99.90
21033;DHT22;10675;47.976;7.824;2022-12-07T10:12:08;6.40;99.90
21033;DHT22;10675;47.976;7.824;2022-12-07T10:14:39;6.40;99.90
21033;DHT22;10675;47.976;7.824;2022-12-07T10:20:26;6.40;99.90
21033;DHT22;10675;47.976;7.824;2022-12-07T10:25:22;7.00;99.90
21033;DHT22;10675;47.976;7.824;2022-12-07T10:30:24;6.80;99.90
21033;DHT22;10675;47.976;7.824;2022-12-07T10:32:49;6.60;99.90
21033;DHT22;10675;47.976;7.824;2022-12-07T10:35:30;6.60;99.90
21033;DHT22;10675;47.976;7.824;2022-12-07T10:37:58;6.80;99.90
21033;DHT22;10675;47.976;7.824;2022-12-07T10:40:31;6.90;99.20
21033;DHT22;10675;47.976;7.824;2022-12-07T10:43:18;6.80;99.50
21033;DHT22;10675;47.976;7.824;2022-12-07T10:48:49;7.00;98.10
21033;DHT22;10675;47.976;7.824;2022-12-07T10:51:46;7.10;97.30
21033;DHT22;10675;47.976;7.824;2022-12-07T10:57:10;7.40;96.50
21033;DHT22;10675;47.976;7.824;2022-12-07T11:00:15;7.30;96.30
21033;DHT22;10675;47.976;7.824;2022-12-07T11:08:21;7.40;94.50
21033;DHT22;10675;47.976;7.824;2022-12-07T11:21:43;7.90;94.50
21033;DHT22;10675;47.976;7.824;2022-12-07T11:24:16;8.10;93.60
21033;DHT22;10675;47.976;7.824;2022-12-07T11:27:27;8.30;93.90
21033;DHT22;10675;47.976;7.824;2022-12-07T11:37:41;8.70;91.50
21033;DHT22;10675;47.976;7.824;2022-12-07T11:40:29;8.60;91.60
21033;DHT22;10675;47.976;7.824;2022-12-07T11:43:00;8.60;90.70
21033;DHT22;10675;47.976;7.824;2022-12-07T11:45:30;8.50;90.40
21033;DHT22;10675;47.976;7.824;2022-12-07T11:48:03;8.70;89.50
21033;DHT22;10675;47.976;7.824;2022-12-07T11:50:50;8.50;87.60
21033;DHT22;10675;47.976;7.824;2022-12-07T11:53:37;8.50;88.40
21033;DHT22;10675;47.976;7.824;2022-12-07T11:56:11;8.40;87.70
21033;DHT22;10675;47.976;7.824;2022-12-07T12:03:56;9.00;83.90
21033;DHT22;10675;47.976;7.824;2022-12-07T12:06:23;8.90;82.00
21033;DHT22;10675;47.976;7.824;2022-12-07T12:09:05;8.50;82.30
21033;DHT22;10675;47.976;7.824;2022-12-07T12:14:37;8.30;85.80
21033;DHT22;10675;47.976;7.824;2022-12-07T12:20:13;8.40;85.30
21033;DHT22;10675;47.976;7.824;2022-12-07T12:22:44;8.30;87.30
21033;DHT22;10675;47.976;7.824;2022-12-07T12:25:27;7.90;89.70
21033;DHT22;10675;47.976;7.824;2022-12-07T12:27:55;8.10;90.00
21033;DHT22;10675;47.976;7.824;2022-12-07T12:30:36;8.30;90.20
21033;DHT22;10675;47.976;7.824;2022-12-07T12:33:26;8.30;90.60
21033;DHT22;10675;47.976;7.824;2022-12-07T12:47:00;7.50;93.00
21033;DHT22;10675;47.976;7.824;2022-12-07T12:49:38;7.50;92.70
21033;DHT22;10675;47.976;7.824;2022-12-07T12:55:11;7.60;92.10
21033;DHT22;10675;47.976;7.824;2022-12-07T12:57:37;7.40;91.60
21033;DHT22;10675;47.976;7.824;2022-12-07T13:00:21;7.30;92.30
21033;DHT22;10675;47.976;7.824;2022-12-07T13:05:21;7.60;92.30
21033;DHT22;10675;47.976;7.824;2022-12-07T13:18:25;7.30;91.70
21033;DHT22;10675;47.976;7.824;2022-12-07T13:28:50;7.60;90.60
21033;DHT22;10675;47.976;7.824;2022-12-07T13:31:25;7.60;90.90
21033;DHT22;10675;47.976;7.824;2022-12-07T13:33:53;7.70;90.80
21033;DHT22;10675;47.976;7.824;2022-12-07T13:36:34;7.70;90.50
21033;DHT22;10675;47.976;7.824;2022-12-07T13:41:42;7.60;89.80
21033;DHT22;10675;47.976;7.824;2022-12-07T13:44:13;7.50;89.90
21033;DHT22;10675;47.976;7.824;2022-12-07T13:46:44;7.70;90.50
21033;DHT22;10675;47.976;7.824;2022-12-07T13:49:31;7.40;90.20
21033;DHT22;10675;47.976;7.824;2022-12-07T13:52:16;7.20;90.60
21033;DHT22;10675;47.976;7.824;2022-12-07T13:54:55;7.20;90.80
21033;DHT22;10675;47.976;7.824;2022-12-07T13:57:22;7.10;91.10
21033;DHT22;10675;47.976;7.824;2022-12-07T13:59:47;7.40;91.40
21033;DHT22;10675;47.976;7.824;2022-12-07T14:02:26;7.70;91.40
21033;DHT22;10675;47.976;7.824;2022-12-07T14:04:52;8.20;90.60
21033;DHT22;10675;47.976;7.824;2022-12-07T14:07:24;8.50;90.40
21033;DHT22;10675;47.976;7.824;2022-12-07T14:09:56;9.00;88.30
21033;DHT22;10675;47.976;7.824;2022-12-07T14:12:23;8.60;90.10
21033;DHT22;10675;47.976;7.824;2022-12-07T14:14:49;8.60;87.40
21033;DHT22;10675;47.976;7.824;2022-12-07T14:17:19;8.60;86.30
21033;DHT22;10675;47.976;7.824;2022-12-07T14:20:00;8.70;86.50
21033;DHT22;10675;47.976;7.824;2022-12-07T14:27:32;8.30;87.30
21033;DHT22;10675;47.976;7.824;2022-12-07T14:30:00;8.30;87.00
21033;DHT22;10675;47.976;7.824;2022-12-07T14:32:28;7.80;86.90
21033;DHT22;10675;47.976;7.824;2022-12-07T14:35:09;7.70;88.90
21033;DHT22;10675;47.976;7.824;2022-12-07T14:37:36;7.50;88.90
21033;DHT22;10675;47.976;7.824;2022-12-07T14:40:03;7.40;88.90
21033;DHT22;10675;47.976;7.824;2022-12-07T14:42:29;7.30;88.00
21033;DHT22;10675;47.976;7.824;2022-12-07T14:44:56;7.00;88.20
21033;DHT22;10675;47.976;7.824;2022-12-07T14:47:23;6.80;89.60
21033;DHT22;10675;47.976;7.824;2022-12-07T14:49:49;6.80;90.50
21033;DHT22;10675;47.976;7.824;2022-12-07T14:52:21;6.70;90.70
21033;DHT22;10675;47.976;7.824;2022-12-07T14:54:46;6.50;90.50
21033;DHT22;10675;47.976;7.824;2022-12-07T14:57:12;6.50;91.40
21033;DHT22;10675;47.976;7.824;2022-12-07T14:59:38;6.50;91.50
21033;DHT22;10675;47.976;7.824;2022-12-07T15:02:04;6.50;91.70
21033;DHT22;10675;47.976;7.824;2022-12-07T15:04:30;6.50;92.30
21033;DHT22;10675;47.976;7.824;2022-12-07T15:07:03;6.50;93.70
21033;DHT22;10675;47.976;7.824;2022-12-07T15:09:29;6.40;93.20
21033;DHT22;10675;47.976;7.824;2022-12-07T15:11:54;6.40;93.30
21033;DHT22;10675;47.976;7.824;2022-12-07T15:14:20;6.20;93.50
21033;DHT22;10675;47.976;7.824;2022-12-07T15:16:46;6.20;94.00
21033;DHT22;10675;47.976;7.824;2022-12-07T15:19:22;6.30;94.20
21033;DHT22;10675;47.976;7.824;2022-12-07T15:21:51;6.30;94.50
21033;DHT22;10675;47.976;7.824;2022-12-07T15:24:17;6.20;95.00
21033;DHT22;10675;47.976;7.824;2022-12-07T15:26:42;6.10;95.40
21033;DHT22;10675;47.976;7.824;2022-12-07T15:29:09;6.20;95.70
21033;DHT22;10675;47.976;7.824;2022-12-07T15:31:35;6.20;95.70
21033;DHT22;10675;47.976;7.824;2022-12-07T15:34:01;5.90;95.80
21033;DHT22;10675;47.976;7.824;2022-12-07T15:36:28;6.20;96.10
21033;DHT22;10675;47.976;7.824;2022-12-07T15:38:55;6.10;96.30
21033;DHT22;10675;47.976;7.824;2022-12-07T15:41:22;6.10;96.50
21033;DHT22;10675;47.976;7.824;2022-12-07T15:43:48;6.10;96.70
21033;DHT22;10675;47.976;7.824;2022-12-07T15:46:34;5.50;97.20
21033;DHT22;10675;47.976;7.824;2022-12-07T15:49:00;5.90;97.50
21033;DHT22;10675;47.976;7.824;2022-12-07T15:51:26;5.80;97.70
21033;DHT22;10675;47.976;7.824;2022-12-07T15:53:52;5.90;98.00
21033;DHT22;10675;47.976;7.824;2022-12-07T15:56:18;5.80;98.00
21033;DHT22;10675;47.976;7.824;2022-12-07T15:58:44;5.70;98.30
21033;DHT22;10675;47.976;7.824;2022-12-07T16:01:11;5.60;98.60
21033;DHT22;10675;47.976;7.824;2022-12-07T16:03:37;5.60;98.70
21033;DHT22;10675;47.976;7.824;2022-12-07T16:06:02;5.50;99.30
21033;DHT22;10675;47.976;7.824;2022-12-07T16:08:28;5.50;99.60
21033;DHT22;10675;47.976;7.824;2022-12-07T16:10:53;5.50;99.60
21033;DHT22;10675;47.976;7.824;2022-12-07T16:13:19;5.30;99.90
21033;DHT22;10675;47.976;7.824;2022-12-07T16:15:45;5.30;99.90
21033;DHT22;10675;47.976;7.824;2022-12-07T16:18:10;5.20;99.90
21033;DHT22;10675;47.976;7.824;2022-12-07T16:20:36;5.20;99.90
21033;DHT22;10675;47.976;7.824;2022-12-07T16:23:01;5.10;99.90
21033;DHT22;10675;47.976;7.824;2022-12-07T16:25:27;5.10;99.90
21033;DHT22;10675;47.976;7.824;2022-12-07T16:27:53;4.90;99.90
21033;DHT22;10675;47.976;7.824;2022-12-07T16:30:19;4.70;99.90
21033;DHT22;10675;47.976;7.824;2022-12-07T16:32:44;4.60;99.90
21033;DHT22;10675;47.976;7.824;2022-12-07T16:35:10;4.50;99.90
21033;DHT22;10675;47.976;7.824;2022-12-07T16:37:36;4.40;99.90
21033;DHT22;10675;47.976;7.824;2022-12-07T16:40:02;4.40;99.90
21033;DHT22;10675;47.976;7.824;2022-12-07T16:42:32;4.30;99.90
21033;DHT22;10675;47.976;7.824;2022-12-07T16:44:58;4.20;99.90
21033;DHT22;10675;47.976;7.824;2022-12-07T16:47:23;4.20;99.90
21033;DHT22;10675;47.976;7.824;2022-12-07T16:49:49;4.20;99.90
21033;DHT22;10675;47.976;7.824;2022-12-07T16:52:15;4.10;99.90
21033;DHT22;10675;47.976;7.824;2022-12-07T16:54:40;3.90;99.90
21033;DHT22;10675;47.976;7.824;2022-12-07T16:57:06;3.90;99.90
21033;DHT22;10675;47.976;7.824;2022-12-07T16:59:31;3.80;99.90
21033;DHT22;10675;47.976;7.824;2022-12-07T17:01:57;3.80;99.90
21033;DHT22;10675;47.976;7.824;2022-12-07T17:04:22;3.80;99.90
21033;DHT22;10675;47.976;7.824;2022-12-07T17:06:48;3.80;99.90
21033;DHT22;10675;47.976;7.824;2022-12-07T17:09:13;3.70;99.90
21033;DHT22;10675;47.976;7.824;2022-12-07T17:11:39;3.70;99.90
21033;DHT22;10675;47.976;7.824;2022-12-07T17:14:08;3.60;99.90
21033;DHT22;10675;47.976;7.824;2022-12-07T17:16:52;3.50;99.90
21033;DHT22;10675;47.976;7.824;2022-12-07T17:19:17;3.50;99.90
21033;DHT22;10675;47.976;7.824;2022-12-07T17:21:43;3.10;99.90
21033;DHT22;10675;47.976;7.824;2022-12-07T17:24:12;3.50;99.90
21033;DHT22;10675;47.976;7.824;2022-12-07T17:26:39;3.10;99.90
21033;DHT22;10675;47.976;7.824;2022-12-07T17:29:05;3.20;99.90
21033;DHT22;10675;47.976;7.824;2022-12-07T17:31:33;2.90;99.90
21033;DHT22;10675;47.976;7.824;2022-12-07T17:33:58;3.10;99.90
21033;DHT22;10675;47.976;7.824;2022-12-07T17:36:26;3.40;99.90
21033;DHT22;10675;47.976;7.824;2022-12-07T17:38:52;3.10;99.90
21033;DHT22;10675;47.976;7.824;2022-12-07T17:41:21;3.10;99.90
21033;DHT22;10675;47.976;7.824;2022-12-07T17:44:08;3.10;99.90
21033;DHT22;10675;47.976;7.824;2022-12-07T17:46:34;3.10;99.90
21033;DHT22;10675;47.976;7.824;2022-12-07T17:49:00;3.00;99.90
21033;DHT22;10675;47.976;7.824;2022-12-07T17:51:26;2.90;99.90
21033;DHT22;10675;47.976;7.824;2022-12-07T17:54:11;3.00;99.90
21033;DHT22;10675;47.976;7.824;2022-12-07T17:56:37;3.40;99.90
21033;DHT22;10675;47.976;7.824;2022-12-07T17:59:03;3.10;99.90
21033;DHT22;10675;47.976;7.824;2022-12-07T18:01:29;2.90;99.90
21033;DHT22;10675;47.976;7.824;2022-12-07T18:03:54;3.00;99.90
21033;DHT22;10675;47.976;7.824;2022-12-07T18:06:20;3.00;99.90
21033;DHT22;10675;47.976;7.824;2022-12-07T18:08:46;3.10;99.90